createdAt,value
2018-10-09T00:00:17.158Z,7.98
2018-10-09T00:01:26.844Z,8.01
2018-10-09T00:02:36.813Z,7.98
2018-10-09T00:03:46.753Z,8.02
2018-10-09T00:04:56.182Z,7.99
2018-10-09T00:06:05.850Z,7.99
2018-10-09T00:07:15.278Z,8.06
2018-10-09T00:08:25.212Z,8.03
2018-10-09T00:09:35.154Z,8.08
2018-10-09T00:10:44.835Z,8.06
2018-10-09T00:11:54.771Z,8.06
2018-10-09T00:13:04.690Z,8.13
2018-10-09T00:14:14.366Z,8.11
2018-10-09T00:15:24.302Z,8.09
2018-10-09T00:16:34.227Z,8.02
2018-10-09T00:17:43.944Z,8.05
2018-10-09T00:18:53.869Z,7.91
2018-10-09T00:20:03.804Z,7.99
2018-10-09T00:21:13.484Z,7.98
2018-10-09T00:22:23.434Z,7.99
2018-10-09T00:23:33.116Z,7.9
2018-10-09T00:24:43.061Z,7.85
2018-10-09T00:25:52.807Z,7.85
2018-10-09T00:27:02.670Z,7.83
2018-10-09T00:28:12.629Z,7.87
2018-10-09T00:29:22.569Z,7.77
2018-10-09T00:30:32.577Z,7.74
2018-10-09T00:31:42.256Z,7.72
2018-10-09T00:32:52.182Z,7.69
2018-10-09T00:34:02.116Z,7.61
2018-10-09T00:35:11.814Z,7.62
2018-10-09T00:36:21.744Z,7.67
2018-10-09T00:37:31.419Z,7.64
2018-10-09T00:38:41.120Z,7.66
2018-10-09T00:39:50.789Z,7.74
2018-10-09T00:41:00.733Z,7.66
2018-10-09T00:42:10.410Z,7.74
2018-10-09T00:43:19.824Z,7.74
2018-10-09T00:44:29.768Z,7.77
2018-10-09T00:45:39.687Z,7.67
2018-10-09T00:46:49.633Z,7.8
2018-10-09T00:47:59.314Z,7.62
2018-10-09T00:49:09.277Z,7.66
2018-10-09T00:50:18.696Z,7.58
2018-10-09T00:51:28.376Z,7.61
2018-10-09T00:52:38.051Z,7.61
2018-10-09T00:53:47.985Z,7.58
2018-10-09T00:54:57.906Z,7.56
2018-10-09T00:56:07.841Z,7.61
2018-10-09T00:57:17.762Z,7.56
2018-10-09T00:58:27.169Z,7.48
2018-10-09T00:59:36.839Z,7.5
2018-10-09T01:00:46.778Z,7.44
2018-10-09T01:01:56.463Z,7.51
2018-10-09T01:03:06.388Z,7.51
2018-10-09T01:04:16.318Z,7.55
2018-10-09T01:05:25.988Z,7.55
2018-10-09T01:06:35.918Z,7.53
2018-10-09T01:07:45.339Z,7.53
2018-10-09T01:08:55.054Z,7.55
2018-10-09T01:10:05.059Z,7.58
2018-10-09T01:11:14.475Z,7.61
2018-10-09T01:12:24.153Z,7.62
2018-10-09T01:13:34.095Z,7.62
2018-10-09T01:14:43.770Z,7.61
2018-10-09T01:15:53.705Z,7.67
2018-10-09T01:17:03.635Z,7.66
2018-10-09T01:18:13.316Z,7.66
2018-10-09T01:19:23.233Z,7.58
2018-10-09T01:20:33.164Z,7.66
2018-10-09T01:21:43.091Z,7.66
2018-10-09T01:22:53.025Z,7.58
2018-10-09T01:24:02.967Z,7.66
2018-10-09T01:25:12.635Z,7.61
2018-10-09T01:26:22.576Z,7.62
2018-10-09T01:27:32.521Z,7.59
2018-10-09T01:28:42.452Z,7.55
2018-10-09T01:29:52.126Z,7.47
2018-10-09T01:31:02.056Z,7.56
2018-10-09T01:32:11.734Z,7.51
2018-10-09T01:33:21.659Z,7.51
2018-10-09T01:34:31.076Z,7.55
2018-10-09T01:35:40.767Z,7.55
2018-10-09T01:36:50.698Z,7.62
2018-10-09T01:38:00.632Z,7.59
2018-10-09T01:39:10.571Z,7.61
2018-10-09T01:40:20.533Z,7.5
2018-10-09T01:41:30.453Z,7.51
2018-10-09T01:42:40.418Z,7.51
2018-10-09T01:43:50.332Z,7.47
2018-10-09T01:44:59.751Z,7.48
2018-10-09T01:46:09.403Z,7.5
2018-10-09T01:47:19.343Z,7.48
2018-10-09T01:48:29.271Z,7.47
2018-10-09T01:49:39.203Z,7.43
2018-10-09T01:50:49.124Z,7.37
2018-10-09T01:51:58.538Z,7.36
2018-10-09T01:53:07.953Z,7.36
2018-10-09T01:54:17.881Z,7.33
2018-10-09T01:55:27.555Z,7.29
2018-10-09T01:56:37.232Z,7.25
2018-10-09T01:57:47.163Z,7.33
2018-10-09T01:58:56.571Z,7.31
2018-10-09T02:00:05.992Z,7.25
2018-10-09T02:01:15.905Z,7.32
2018-10-09T02:02:25.587Z,7.19
2018-10-09T02:03:35.526Z,7.19
2018-10-09T02:04:45.464Z,7.21
2018-10-09T02:05:55.138Z,7.33
2018-10-09T02:07:05.071Z,7.37
2018-10-09T02:08:15.025Z,7.33
2018-10-09T02:09:24.956Z,7.31
2018-10-09T02:10:34.622Z,7.28
2018-10-09T02:11:44.306Z,7.31
2018-10-09T02:12:54.251Z,7.36
2018-10-09T02:14:03.935Z,7.33
2018-10-09T02:15:13.864Z,7.36
2018-10-09T02:16:23.784Z,7.36
2018-10-09T02:17:33.454Z,7.4
2018-10-09T02:18:43.383Z,7.39
2018-10-09T02:19:53.324Z,7.39
2018-10-09T02:21:03.269Z,7.33
2018-10-09T02:22:13.204Z,7.36
2018-10-09T02:23:22.622Z,7.36
2018-10-09T02:24:31.780Z,7.26
2018-10-09T02:25:41.482Z,7.4
2018-10-09T02:26:51.423Z,7.37
2018-10-09T02:28:01.358Z,7.29
2018-10-09T02:29:11.295Z,7.37
2018-10-09T02:30:20.717Z,7.36
2018-10-09T02:31:30.391Z,7.36
2018-10-09T02:32:40.324Z,7.29
2018-10-09T02:33:50.429Z,7.29
2018-10-09T02:35:00.126Z,7.28
2018-10-09T02:36:09.814Z,7.18
2018-10-09T02:37:19.757Z,7.33
2018-10-09T02:38:29.687Z,7.28
2018-10-09T02:39:39.359Z,7.22
2018-10-09T02:40:48.785Z,7.18
2018-10-09T02:41:58.453Z,7.19
2018-10-09T02:43:08.391Z,7.18
2018-10-09T02:44:18.083Z,7.19
2018-10-09T02:45:28.011Z,7.14
2018-10-09T02:46:37.955Z,7.23
2018-10-09T02:47:47.895Z,7.22
2018-10-09T02:48:57.819Z,7.15
2018-10-09T02:50:07.501Z,7.14
2018-10-09T02:51:17.462Z,7.07
2018-10-09T02:52:27.165Z,7.01
2018-10-09T02:53:37.091Z,6.95
2018-10-09T02:54:47.035Z,6.83
2018-10-09T02:55:56.984Z,6.85
2018-10-09T02:57:06.656Z,6.8
2018-10-09T02:58:16.589Z,6.74
2018-10-09T02:59:26.521Z,6.67
2018-10-09T03:00:36.200Z,6.74
2018-10-09T03:01:46.178Z,6.68
2018-10-09T03:02:56.099Z,6.75
2018-10-09T03:04:06.077Z,6.68
2018-10-09T03:05:16.017Z,6.72
2018-10-09T03:06:25.955Z,6.74
2018-10-09T03:07:35.628Z,6.65
2018-10-09T03:08:45.168Z,6.67
2018-10-09T03:09:55.118Z,6.7
2018-10-09T03:11:05.057Z,6.7
2018-10-09T03:12:14.992Z,6.72
2018-10-09T03:13:24.686Z,6.62
2018-10-09T03:14:34.616Z,6.6
2018-10-09T03:15:44.556Z,6.52
2018-10-09T03:16:54.216Z,6.56
2018-10-09T03:18:03.666Z,6.64
2018-10-09T03:19:13.091Z,6.62
2018-10-09T03:20:23.028Z,6.59
2018-10-09T03:21:33.037Z,6.56
2018-10-09T03:22:42.708Z,6.6
2018-10-09T03:23:52.645Z,6.46
2018-10-09T03:25:02.577Z,6.35
2018-10-09T03:26:12.526Z,6.35
2018-10-09T03:27:22.202Z,6.34
2018-10-09T03:28:32.138Z,6.36
2018-10-09T03:29:42.089Z,6.39
2018-10-09T03:30:52.038Z,6.26
2018-10-09T03:32:01.970Z,6.31
2018-10-09T03:33:11.883Z,6.34
2018-10-09T03:34:21.577Z,6.28
2018-10-09T03:35:31.259Z,6.29
2018-10-09T03:36:40.942Z,6.29
2018-10-09T03:37:50.884Z,6.29
2018-10-09T03:39:00.810Z,6.35
2018-10-09T03:40:10.753Z,6.31
2018-10-09T03:41:20.695Z,6.31
2018-10-09T03:42:30.631Z,6.39
2018-10-09T03:43:40.566Z,6.31
2018-10-09T03:44:50.237Z,6.29
2018-10-09T03:46:00.166Z,6.32
2018-10-09T03:47:10.092Z,6.54
2018-10-09T03:48:20.020Z,6.53
2018-10-09T03:49:29.952Z,6.54
2018-10-09T03:50:39.888Z,6.54
2018-10-09T03:51:49.553Z,6.59
2018-10-09T03:52:59.489Z,6.54
2018-10-09T03:54:09.415Z,6.54
2018-10-09T03:55:19.099Z,6.36
2018-10-09T03:56:29.035Z,6.38
2018-10-09T03:57:38.711Z,6.32
2018-10-09T03:58:48.382Z,6.16
2018-10-09T03:59:57.818Z,6.2
2018-10-09T04:01:07.769Z,6.1
2018-10-09T04:02:17.700Z,6.13
2018-10-09T04:03:27.384Z,6.1
2018-10-09T04:04:37.318Z,6.17
2018-10-09T04:05:47.256Z,6.16
2018-10-09T04:06:56.926Z,6.16
2018-10-09T04:08:06.604Z,6.09
2018-10-09T04:09:16.640Z,6.1
2018-10-09T04:10:26.426Z,6.07
2018-10-09T04:11:36.364Z,6.1
2018-10-09T04:12:46.675Z,6.12
2018-10-09T04:13:56.260Z,6.07
2018-10-09T04:15:06.213Z,6.07
2018-10-09T04:16:16.157Z,6.13
2018-10-09T04:17:25.835Z,6.06
2018-10-09T04:18:35.512Z,6.17
2018-10-09T04:19:45.676Z,6.19
2018-10-09T04:20:55.352Z,6.15
2018-10-09T04:22:05.031Z,6.19
2018-10-09T04:23:14.959Z,6.22
2018-10-09T04:24:24.890Z,6.15
2018-10-09T04:25:34.572Z,6.22
2018-10-09T04:26:44.501Z,6.32
2018-10-09T04:27:53.926Z,6.19
2018-10-09T04:29:03.869Z,6.29
2018-10-09T04:30:13.806Z,6.31
2018-10-09T04:31:23.765Z,6.28
2018-10-09T04:32:33.705Z,6.22
2018-10-09T04:33:43.626Z,6.29
2018-10-09T04:34:53.563Z,6.32
2018-10-09T04:36:03.496Z,6.32
2018-10-09T04:37:13.430Z,6.31
2018-10-09T04:38:23.098Z,6.38
2018-10-09T04:39:33.025Z,6.35
2018-10-09T04:40:42.697Z,6.36
2018-10-09T04:41:52.126Z,6.36
2018-10-09T04:43:02.077Z,6.31
2018-10-09T04:44:11.773Z,6.46
2018-10-09T04:45:21.741Z,6.39
2018-10-09T04:46:31.457Z,6.41
2018-10-09T04:47:41.407Z,6.34
2018-10-09T04:48:51.352Z,6.34
2018-10-09T04:50:01.283Z,6.38
2018-10-09T04:51:11.236Z,6.35
2018-10-09T04:52:20.900Z,6.36
2018-10-09T04:53:30.584Z,6.31
2018-10-09T04:54:40.531Z,6.29
2018-10-09T04:55:50.451Z,6.29
2018-10-09T04:57:00.396Z,6.22
2018-10-09T04:58:10.082Z,6.31
2018-10-09T04:59:20.030Z,6.25
2018-10-09T05:00:30.027Z,6.29
2018-10-09T05:01:40.056Z,6.22
2018-10-09T05:02:49.731Z,6.34
2018-10-09T05:03:59.679Z,6.38
2018-10-09T05:05:09.602Z,6.36
2018-10-09T05:06:19.025Z,6.34
2018-10-09T05:07:28.969Z,6.35
2018-10-09T05:08:38.914Z,6.32
2018-10-09T05:09:48.581Z,6.39
2018-10-09T05:10:58.519Z,6.36
2018-10-09T05:12:08.207Z,6.36
2018-10-09T05:13:18.155Z,6.35
2018-10-09T05:14:27.825Z,6.41
2018-10-09T05:15:37.507Z,6.41
2018-10-09T05:16:47.443Z,6.39
2018-10-09T05:17:57.701Z,6.35
2018-10-09T05:19:07.376Z,6.41
2018-10-09T05:20:17.320Z,6.38
2018-10-09T05:21:27.264Z,6.47
2018-10-09T05:22:37.206Z,6.52
2018-10-09T05:23:47.157Z,6.54
2018-10-09T05:24:56.837Z,6.53
2018-10-09T05:26:06.531Z,6.47
2018-10-09T05:27:16.457Z,6.53
2018-10-09T05:28:25.880Z,6.54
2018-10-09T05:29:35.560Z,6.6
2018-10-09T05:30:45.485Z,6.54
2018-10-09T05:31:55.439Z,6.54
2018-10-09T05:33:05.392Z,6.52
2018-10-09T05:34:15.341Z,6.53
2018-10-09T05:35:25.296Z,6.56
2018-10-09T05:36:34.965Z,6.54
2018-10-09T05:37:44.905Z,6.59
2018-10-09T05:38:54.411Z,6.52
2018-10-09T05:40:04.358Z,6.53
2018-10-09T05:41:14.079Z,6.53
2018-10-09T05:42:24.032Z,6.49
2018-10-09T05:43:33.985Z,6.52
2018-10-09T05:44:44.148Z,6.49
2018-10-09T05:45:53.935Z,6.35
2018-10-09T05:47:03.888Z,6.38
2018-10-09T05:48:13.326Z,6.39
2018-10-09T05:49:23.008Z,6.41
2018-10-09T05:50:33.021Z,6.39
2018-10-09T05:51:42.985Z,6.41
2018-10-09T05:52:52.698Z,6.36
2018-10-09T05:54:02.440Z,6.38
2018-10-09T05:55:12.120Z,6.43
2018-10-09T05:56:21.805Z,6.39
2018-10-09T05:57:31.746Z,6.41
2018-10-09T05:58:41.702Z,6.29
2018-10-09T05:59:51.672Z,6.43
2018-10-09T06:01:01.354Z,6.38
2018-10-09T06:02:11.288Z,6.39
2018-10-09T06:03:20.987Z,6.39
2018-10-09T06:04:30.672Z,6.38
2018-10-09T06:05:40.684Z,6.34
2018-10-09T06:06:50.553Z,6.39
2018-10-09T06:08:00.504Z,6.36
2018-10-09T06:09:10.478Z,6.39
2018-10-09T06:10:20.414Z,6.49
2018-10-09T06:11:30.351Z,6.49
2018-10-09T06:12:40.286Z,6.52
2018-10-09T06:13:50.211Z,6.41
2018-10-09T06:15:00.154Z,6.43
2018-10-09T06:16:10.455Z,6.41
2018-10-09T06:17:20.416Z,6.36
2018-10-09T06:18:30.366Z,6.36
2018-10-09T06:19:39.782Z,6.31
2018-10-09T06:20:49.456Z,6.34
2018-10-09T06:21:59.462Z,6.39
2018-10-09T06:23:09.234Z,6.38
2018-10-09T06:24:19.178Z,6.36
2018-10-09T06:25:28.876Z,6.36
2018-10-09T06:26:38.823Z,6.47
2018-10-09T06:27:48.542Z,6.44
2018-10-09T06:28:58.637Z,6.36
2018-10-09T06:30:08.610Z,6.41
2018-10-09T06:31:18.560Z,6.36
2018-10-09T06:32:28.519Z,6.39
2018-10-09T06:33:38.499Z,6.38
2018-10-09T06:34:48.216Z,6.44
2018-10-09T06:35:58.202Z,6.36
2018-10-09T06:37:08.390Z,6.38
2018-10-09T06:38:17.895Z,6.39
2018-10-09T06:39:27.852Z,6.5
2018-10-09T06:40:38.088Z,6.56
2018-10-09T06:41:48.466Z,6.56
2018-10-09T06:42:58.511Z,6.57
2018-10-09T06:44:08.536Z,6.6
2018-10-09T06:45:18.292Z,6.59
2018-10-09T06:46:27.715Z,6.59
2018-10-09T06:47:38.052Z,6.6
2018-10-09T06:48:48.318Z,6.52
2018-10-09T06:49:57.770Z,6.62
2018-10-09T06:51:07.734Z,6.57
2018-10-09T06:52:17.792Z,6.7
2018-10-09T06:53:27.933Z,6.83
2018-10-09T06:54:38.748Z,6.86
2018-10-09T06:55:48.988Z,6.92
2018-10-09T06:56:58.957Z,7.13
2018-10-09T06:58:08.920Z,7.18
2018-10-09T06:59:18.867Z,7.33
2018-10-09T07:00:28.955Z,7.39
2018-10-09T07:01:38.915Z,7.51
2018-10-09T07:02:48.881Z,7.59
2018-10-09T07:03:58.832Z,7.59
2018-10-09T07:05:08.800Z,7.62
2018-10-09T07:06:18.789Z,7.61
2018-10-09T07:07:28.756Z,7.59
2018-10-09T07:08:38.724Z,7.61
2018-10-09T07:09:48.432Z,7.56
2018-10-09T07:10:58.520Z,7.62
2018-10-09T07:12:08.692Z,7.64
2018-10-09T07:13:18.671Z,7.64
2018-10-09T07:14:28.641Z,7.7
2018-10-09T07:15:38.573Z,7.59
2018-10-09T07:16:48.026Z,7.78
2018-10-09T07:17:58.064Z,7.74
2018-10-09T07:19:07.876Z,7.72
2018-10-09T07:20:17.581Z,7.77
2018-10-09T07:21:27.535Z,7.81
2018-10-09T07:22:37.502Z,7.83
2018-10-09T07:23:47.470Z,7.88
2018-10-09T07:24:57.753Z,7.7
2018-10-09T07:26:07.726Z,7.83
2018-10-09T07:27:17.450Z,7.72
2018-10-09T07:28:27.150Z,7.74
2018-10-09T07:29:37.106Z,7.72
2018-10-09T07:30:46.578Z,7.78
2018-10-09T07:31:56.526Z,7.8
2018-10-09T07:33:06.220Z,7.77
2018-10-09T07:34:16.202Z,7.81
2018-10-09T07:35:26.181Z,7.85
2018-10-09T07:36:35.678Z,7.98
2018-10-09T07:37:46.079Z,8.03
2018-10-09T07:38:56.045Z,8.13
2018-10-09T07:40:06.037Z,8.23
2018-10-09T07:41:16.010Z,8.36
2018-10-09T07:42:25.967Z,8.36
2018-10-09T07:43:35.927Z,8.52
2018-10-09T07:44:45.634Z,8.54
2018-10-09T07:45:55.333Z,8.63
2018-10-09T07:47:05.037Z,8.61
2018-10-09T07:48:14.995Z,8.64
2018-10-09T07:49:24.962Z,8.74
2018-10-09T07:50:34.937Z,8.75
2018-10-09T07:51:44.917Z,8.79
2018-10-09T07:52:55.089Z,8.84
2018-10-09T07:54:05.306Z,9.02
2018-10-09T07:55:15.268Z,9.12
2018-10-09T07:56:24.983Z,9.21
2018-10-09T07:57:34.765Z,9.42
2018-10-09T07:58:45.041Z,9.59
2018-10-09T07:59:55.385Z,9.73
2018-10-09T08:01:05.351Z,9.84
2018-10-09T08:02:15.352Z,9.97
2018-10-09T08:03:25.062Z,10.07
2018-10-09T08:04:34.641Z,10.21
2018-10-09T08:05:44.525Z,10.3
2018-10-09T08:06:54.482Z,10.31
2018-10-09T08:08:04.451Z,10.36
2018-10-09T08:09:14.166Z,10.31
2018-10-09T08:10:24.243Z,10.28
2018-10-09T08:11:34.216Z,10.38
2018-10-09T08:12:43.933Z,10.33
2018-10-09T08:13:53.914Z,10.31
2018-10-09T08:15:03.639Z,10.34
2018-10-09T08:16:13.739Z,10.28
2018-10-09T08:17:23.811Z,10.33
2018-10-09T08:18:33.770Z,10.28
2018-10-09T08:19:43.732Z,10.25
2018-10-09T08:20:53.445Z,10.33
2018-10-09T08:22:03.408Z,10.28
2018-10-09T08:23:13.118Z,10.34
2018-10-09T08:24:22.824Z,10.46
2018-10-09T08:25:32.564Z,10.59
2018-10-09T08:26:42.530Z,10.64
2018-10-09T08:27:52.562Z,10.82
2018-10-09T08:29:02.094Z,10.97
2018-10-09T08:30:12.077Z,10.97
2018-10-09T08:31:22.068Z,11.19
2018-10-09T08:32:32.026Z,11.34
2018-10-09T08:33:42.010Z,11.49
2018-10-09T08:34:51.726Z,11.6
2018-10-09T08:36:01.688Z,11.65
2018-10-09T08:37:11.677Z,11.83
2018-10-09T08:38:21.386Z,11.83
2018-10-09T08:39:31.085Z,11.93
2018-10-09T08:40:40.812Z,12.08
2018-10-09T08:41:50.775Z,12.2
2018-10-09T08:43:00.740Z,12.36
2018-10-09T08:44:10.451Z,12.47
2018-10-09T08:45:20.434Z,12.63
2018-10-09T08:46:30.602Z,12.78
2018-10-09T08:47:40.562Z,12.78
2018-10-09T08:48:50.251Z,12.9
2018-10-09T08:50:00.272Z,12.86
2018-10-09T08:51:10.227Z,12.84
2018-10-09T08:52:19.669Z,13.02
2018-10-09T08:53:29.641Z,13.16
2018-10-09T08:54:39.354Z,13.19
2018-10-09T08:55:49.318Z,13.39
2018-10-09T08:56:59.290Z,13.28
2018-10-09T08:58:09.300Z,13.42
2018-10-09T08:59:19.275Z,13.58
2018-10-09T09:00:29.241Z,13.78
2018-10-09T09:01:38.969Z,13.87
2018-10-09T09:02:48.670Z,14.03
2018-10-09T09:03:58.371Z,14.13
2018-10-09T09:05:08.340Z,14.2
2018-10-09T09:06:18.294Z,14.3
2018-10-09T09:07:28.293Z,14.38
2018-10-09T09:08:38.011Z,14.45
2018-10-09T09:09:48.449Z,14.4
2018-10-09T09:10:58.522Z,14.28
2018-10-09T09:12:08.506Z,14.22
2018-10-09T09:13:18.496Z,14.2
2018-10-09T09:14:28.454Z,14.08
2018-10-09T09:15:37.902Z,14.03
2018-10-09T09:16:47.860Z,14.01
2018-10-09T09:17:57.890Z,13.78
2018-10-09T09:19:07.603Z,13.62
2018-10-09T09:20:17.024Z,13.47
2018-10-09T09:21:26.644Z,13.47
2018-10-09T09:22:36.596Z,13.36
2018-10-09T09:23:46.583Z,13.17
2018-10-09T09:24:56.543Z,13.21
2018-10-09T09:26:06.721Z,13.11
2018-10-09T09:27:17.013Z,13.12
2018-10-09T09:28:27.534Z,13.13
2018-10-09T09:29:37.496Z,13.11
2018-10-09T09:30:47.220Z,13.24
2018-10-09T09:31:57.186Z,13.33
2018-10-09T09:33:07.151Z,13.3
2018-10-09T09:34:17.343Z,13.36
2018-10-09T09:35:27.035Z,13.47
2018-10-09T09:36:37.013Z,13.54
2018-10-09T09:37:46.458Z,13.68
2018-10-09T09:38:56.284Z,13.73
2018-10-09T09:40:06.188Z,13.79
2018-10-09T09:41:15.917Z,14.01
2018-10-09T09:42:25.611Z,14.11
2018-10-09T09:43:35.574Z,14.3
2018-10-09T09:44:45.329Z,14.53
2018-10-09T09:45:55.680Z,14.74
2018-10-09T09:47:06.114Z,14.85
2018-10-09T09:48:16.098Z,14.82
2018-10-09T09:49:26.070Z,14.96
2018-10-09T09:50:36.030Z,14.99
2018-10-09T09:51:45.762Z,14.99
2018-10-09T09:52:55.715Z,15.05
2018-10-09T09:54:05.679Z,15.18
2018-10-09T09:55:15.690Z,15.44
2018-10-09T09:56:25.717Z,15.7
2018-10-09T09:57:35.696Z,15.98
2018-10-09T09:58:46.498Z,16.02
2018-10-09T09:59:57.311Z,15.94
2018-10-09T10:01:07.007Z,16.22
2018-10-09T10:02:16.721Z,16.37
2018-10-09T10:03:26.711Z,16.43
2018-10-09T10:04:36.892Z,16.65
2018-10-09T10:05:46.862Z,16.74
2018-10-09T10:06:56.833Z,16.69
2018-10-09T10:08:06.833Z,16.83
2018-10-09T10:09:16.744Z,17.1
2018-10-09T10:10:26.993Z,17.3
2018-10-09T10:11:36.992Z,17.49
2018-10-09T10:12:47.222Z,17.65
2018-10-09T10:13:57.224Z,17.35
2018-10-09T10:15:07.233Z,17.16
2018-10-09T10:16:17.237Z,16.99
2018-10-09T10:17:27.243Z,16.82
2018-10-09T10:18:37.239Z,16.8
2018-10-09T10:19:47.012Z,16.74
2018-10-09T10:20:56.733Z,16.94
2018-10-09T10:22:06.705Z,17.13
2018-10-09T10:23:16.738Z,17.41
2018-10-09T10:24:26.974Z,17.69
2018-10-09T10:25:41.170Z,17.91
2018-10-09T10:26:51.178Z,18.39
2018-10-09T10:28:04.409Z,18.53
2018-10-09T10:29:24.806Z,18.91
2018-10-09T10:30:44.938Z,19.08
2018-10-09T10:32:04.761Z,18.89
2018-10-09T10:33:14.821Z,18.88
2018-10-09T10:34:40.740Z,18.76
2018-10-09T10:37:48.802Z,18.78
2018-10-09T10:39:09.034Z,18.66
2018-10-09T10:40:39.204Z,19.05
2018-10-09T10:41:55.371Z,19.07
2018-10-09T10:43:11.410Z,19.05
2018-10-09T10:44:24.791Z,19.23
2018-10-09T10:45:43.453Z,19.2
2018-10-09T10:47:02.186Z,19.12
2018-10-09T10:48:24.244Z,19.22
2018-10-09T10:49:44.482Z,19.42
2018-10-09T10:51:07.617Z,19.74
2018-10-09T10:52:26.079Z,20.24
2018-10-09T10:53:44.310Z,20.55
2018-10-09T10:54:57.831Z,20.8
2018-10-09T10:56:14.466Z,21.25
2018-10-09T10:57:31.179Z,21.33
2018-10-09T10:58:40.673Z,21.23
2018-10-09T10:59:50.652Z,21.23
2018-10-09T11:00:59.880Z,21.29
2018-10-09T11:02:09.888Z,21.13
2018-10-09T11:03:19.593Z,20.7
2018-10-09T11:04:29.549Z,20.32
2018-10-09T11:05:39.532Z,20.11
2018-10-09T11:06:49.249Z,19.9
2018-10-09T11:07:59.507Z,19.97
2018-10-09T11:09:09.926Z,20.11
2018-10-09T11:10:19.395Z,19.89
2018-10-09T11:11:28.870Z,19.75
2018-10-09T11:12:38.883Z,19.7
2018-10-09T11:13:48.852Z,19.85
2018-10-09T11:14:58.562Z,20.14
2018-10-09T11:16:08.284Z,20.5
2018-10-09T11:17:18.282Z,20.58
2018-10-09T11:18:28.255Z,20.98
2018-10-09T11:19:38.217Z,20.9
2018-10-09T11:20:47.670Z,21.32
2018-10-09T11:21:57.638Z,21.32
2018-10-09T11:23:07.617Z,21.28
2018-10-09T11:24:17.614Z,21.44
2018-10-09T11:25:27.555Z,21.29
2018-10-09T11:26:37.522Z,21.25
2018-10-09T11:27:47.658Z,21.2
2018-10-09T11:28:57.563Z,21.2
2018-10-09T11:30:07.277Z,21.23
2018-10-09T11:31:17.240Z,21
2018-10-09T11:32:27.101Z,21.13
2018-10-09T11:33:37.380Z,21.13
2018-10-09T11:34:47.082Z,21.22
2018-10-09T11:35:57.044Z,21.17
2018-10-09T11:37:07.191Z,21.35
2018-10-09T11:38:16.913Z,21.3
2018-10-09T11:39:26.889Z,21.47
2018-10-09T11:40:36.854Z,21.43
2018-10-09T11:41:46.820Z,21.2
2018-10-09T11:42:56.827Z,20.98
2018-10-09T11:44:06.854Z,20.83
2018-10-09T11:45:16.560Z,20.55
2018-10-09T11:46:26.523Z,20.46
2018-10-09T11:47:36.496Z,20.37
2018-10-09T11:48:46.232Z,20.22
2018-10-09T11:49:55.929Z,20.36
2018-10-09T11:51:05.893Z,20.55
2018-10-09T11:52:15.601Z,20.56
2018-10-09T11:53:25.588Z,20.34
2018-10-09T11:54:35.307Z,20.21
2018-10-09T11:55:45.008Z,20
2018-10-09T11:56:55.139Z,19.89
2018-10-09T11:58:05.098Z,19.85
2018-10-09T11:59:15.046Z,19.78
2018-10-09T12:00:25.023Z,19.79
2018-10-09T12:01:34.471Z,19.78
2018-10-09T12:02:44.548Z,19.81
2018-10-09T12:03:54.613Z,19.78
2018-10-09T12:05:04.366Z,19.84
2018-10-09T12:06:14.335Z,19.72
2018-10-09T12:07:24.296Z,19.64
2018-10-09T12:08:34.281Z,19.63
2018-10-09T12:09:44.247Z,19.6
2018-10-09T12:10:54.208Z,19.66
2018-10-09T12:12:03.919Z,19.56
2018-10-09T12:13:13.886Z,19.66
2018-10-09T12:14:23.858Z,19.67
2018-10-09T12:15:33.849Z,19.74
2018-10-09T12:16:44.090Z,19.77
2018-10-09T12:17:53.816Z,19.64
2018-10-09T12:19:03.794Z,19.63
2018-10-09T12:20:13.773Z,19.42
2018-10-09T12:21:23.593Z,19.38
2018-10-09T12:22:33.992Z,19.34
2018-10-09T12:23:43.967Z,19.49
2018-10-09T12:24:53.927Z,19.6
2018-10-09T12:26:03.913Z,19.87
2018-10-09T12:27:14.567Z,20.11
2018-10-09T12:28:24.184Z,20.42
2018-10-09T12:29:34.179Z,20.32
2018-10-09T12:30:43.888Z,20.36
2018-10-09T12:31:53.919Z,20.33
2018-10-09T12:33:04.302Z,20.64
2018-10-09T12:34:14.113Z,20.85
2018-10-09T12:35:23.816Z,21.01
2018-10-09T12:36:33.778Z,21.23
2018-10-09T12:37:43.735Z,21.44
2018-10-09T12:38:53.721Z,21.43
2018-10-09T12:40:03.693Z,21.25
2018-10-09T12:41:13.151Z,21.15
2018-10-09T12:42:22.842Z,21.07
2018-10-09T12:43:32.803Z,21.14
2018-10-09T12:44:42.510Z,21.45
2018-10-09T12:45:52.227Z,21.47
2018-10-09T12:47:02.194Z,21.32
2018-10-09T12:48:12.180Z,21.13
2018-10-09T12:49:22.150Z,20.9
2018-10-09T12:50:31.843Z,20.66
2018-10-09T12:51:42.030Z,20.33
2018-10-09T12:52:52.107Z,20.32
2018-10-09T12:54:02.181Z,20.42
2018-10-09T12:55:12.156Z,20.44
2018-10-09T12:56:22.174Z,20.3
2018-10-09T12:57:32.145Z,20.24
2018-10-09T12:58:42.455Z,20.27
2018-10-09T12:59:52.625Z,20.26
2018-10-09T13:01:02.587Z,20.27
2018-10-09T13:02:12.582Z,20.19
2018-10-09T13:03:22.561Z,20.18
2018-10-09T13:04:32.545Z,20.21
2018-10-09T13:05:42.508Z,20.24
2018-10-09T13:06:52.597Z,20.3
2018-10-09T13:08:02.321Z,20.24
2018-10-09T13:09:12.027Z,20.37
2018-10-09T13:10:21.991Z,20.29
2018-10-09T13:11:31.949Z,20.4
2018-10-09T13:12:41.918Z,20.46
2018-10-09T13:13:51.867Z,20.53
2018-10-09T13:15:01.573Z,20.71
2018-10-09T13:16:11.538Z,20.78
2018-10-09T13:17:21.898Z,20.7
2018-10-09T13:18:32.025Z,20.82
2018-10-09T13:19:41.973Z,20.92
2018-10-09T13:20:52.281Z,20.86
2018-10-09T13:22:03.160Z,20.7
2018-10-09T13:23:14.260Z,20.53
2018-10-09T13:24:24.242Z,20.5
2018-10-09T13:25:34.187Z,20.5
2018-10-09T13:26:43.647Z,20.42
2018-10-09T13:27:53.089Z,20.33
2018-10-09T13:29:02.551Z,20.15
2018-10-09T13:30:12.274Z,20.14
2018-10-09T13:31:21.974Z,20.1
2018-10-09T13:32:31.946Z,19.97
2018-10-09T13:33:41.380Z,19.97
2018-10-09T13:34:51.076Z,19.92
2018-10-09T13:36:00.790Z,19.89
2018-10-09T13:37:09.995Z,19.81
2018-10-09T13:38:20.313Z,19.81
2018-10-09T13:39:30.474Z,19.77
2018-10-09T13:40:40.432Z,19.84
2018-10-09T13:41:50.447Z,19.92
2018-10-09T13:43:00.420Z,19.97
2018-10-09T13:44:10.515Z,20.15
2018-10-09T13:45:20.371Z,20.22
2018-10-09T13:46:30.345Z,20.36
2018-10-09T13:47:40.933Z,20.33
2018-10-09T13:48:51.240Z,20.3
2018-10-09T13:50:01.191Z,20.34
2018-10-09T13:51:11.199Z,20.36
2018-10-09T13:52:21.163Z,20.3
2018-10-09T13:53:31.256Z,20.53
2018-10-09T13:54:41.209Z,20.64
2018-10-09T13:55:51.177Z,20.5
2018-10-09T13:57:01.158Z,20.42
2018-10-09T13:58:11.189Z,20.53
2018-10-09T13:59:21.156Z,20.42
2018-10-09T14:00:31.477Z,20.3
2018-10-09T14:01:41.552Z,20.33
2018-10-09T14:02:51.585Z,20.33
2018-10-09T14:04:01.411Z,20.19
2018-10-09T14:05:11.092Z,20.3
2018-10-09T14:06:21.325Z,20.21
2018-10-09T14:07:31.290Z,20.27
2018-10-09T14:08:41.263Z,20.29
2018-10-09T14:09:50.972Z,20.22
2018-10-09T14:11:00.997Z,20.33
2018-10-09T14:12:10.695Z,20.4
2018-10-09T14:13:20.152Z,20.24
2018-10-09T14:14:30.140Z,20.36
2018-10-09T14:15:39.839Z,20.21
2018-10-09T14:16:49.804Z,20.19
2018-10-09T14:17:59.515Z,20.14
2018-10-09T14:19:09.480Z,20.08
2018-10-09T14:20:19.452Z,20.11
2018-10-09T14:21:29.434Z,20.08
2018-10-09T14:22:39.934Z,20.21
2018-10-09T14:23:50.202Z,20.19
2018-10-09T14:25:00.181Z,20.22
2018-10-09T14:26:10.145Z,20.29
2018-10-09T14:27:19.590Z,20.27
2018-10-09T14:28:29.556Z,20.32
2018-10-09T14:29:39.265Z,20.49
2018-10-09T14:30:49.268Z,20.44
2018-10-09T14:31:58.955Z,20.44
2018-10-09T14:33:08.410Z,20.32
2018-10-09T14:34:18.114Z,20.32
2018-10-09T14:35:27.574Z,20.3
2018-10-09T14:36:37.551Z,20.29
2018-10-09T14:37:47.519Z,20.24
2018-10-09T14:38:57.238Z,20.17
2018-10-09T14:40:07.208Z,20.19
2018-10-09T14:41:17.173Z,20.27
2018-10-09T14:42:27.148Z,20.12
2018-10-09T14:43:36.855Z,20.02
2018-10-09T14:44:46.569Z,20.03
2018-10-09T14:45:56.024Z,20
2018-10-09T14:47:05.997Z,19.99
2018-10-09T14:48:15.456Z,20
2018-10-09T14:49:25.422Z,19.96
2018-10-09T14:50:35.387Z,20
2018-10-09T14:51:45.344Z,20
2018-10-09T14:52:55.483Z,20.03
2018-10-09T14:54:05.445Z,20.14
2018-10-09T14:55:15.419Z,20.11
2018-10-09T14:56:25.385Z,20.11
2018-10-09T14:57:35.535Z,20.14
2018-10-09T14:58:45.697Z,20.11
2018-10-09T14:59:55.670Z,20.19
2018-10-09T15:01:05.668Z,20.19
2018-10-09T15:02:15.612Z,20.26
2018-10-09T15:03:25.765Z,20.19
2018-10-09T15:04:35.872Z,20.3
2018-10-09T15:05:45.857Z,20.27
2018-10-09T15:06:55.553Z,20.22
2018-10-09T15:08:05.520Z,20.24
2018-10-09T15:09:15.479Z,20.24
2018-10-09T15:10:25.467Z,20.32
2018-10-09T15:11:35.447Z,20.3
2018-10-09T15:12:45.153Z,20.4
2018-10-09T15:13:55.123Z,20.5
2018-10-09T15:15:05.104Z,20.64
2018-10-09T15:16:15.085Z,20.74
2018-10-09T15:17:25.194Z,20.92
2018-10-09T15:18:35.320Z,20.92
2018-10-09T15:19:45.029Z,20.98
2018-10-09T15:20:54.745Z,21.1
2018-10-09T15:22:04.706Z,21.22
2018-10-09T15:23:14.676Z,21.17
2018-10-09T15:24:24.635Z,21.15